Armstrong, Missouri
Current Conditions -  °F | °C
As of 11:15 AM on Friday 19 Dec 2014 (Local Time) from KVER Reporting Station
Overcast Overcast  
Wind Chill:   Ceiling: 1000
Heat Index:   Visibility: 7mi
Dew Point:   Wind: 5mph
Humidity: 90%   Direction: 120°ESE
Pressure: 30.28"   Gusts: NA
Location:  39.27°N, 92.7°W
Report Text: KVER 191715Z AUTO 12004KT 7SM OVC010 02/01 A3028 RMK AO2 T00220007
Loading
Personal Weather Stations






























Interactive Weather Map New forecast layout! Learn more

10-Day Weather Forecast

Advertisements
Track Severe Weather on mobile